createdAt,value
2019-02-12T00:01:02.396Z,0.00
2019-02-12T00:03:33.144Z,-0.11
2019-02-12T00:06:03.554Z,-0.17
2019-02-12T00:08:33.758Z,-0.17
2019-02-12T00:11:03.942Z,-0.13
2019-02-12T00:13:36.852Z,-0.05
2019-02-12T00:16:07.178Z,-0.03
2019-02-12T00:18:37.386Z,-0.02
2019-02-12T00:21:09.141Z,0.06
2019-02-12T00:23:39.627Z,0.02
2019-02-12T00:26:10.166Z,-0.09
2019-02-12T00:28:40.309Z,-0.14
2019-02-12T00:31:10.462Z,-0.15
2019-02-12T00:33:40.742Z,-0.10
2019-02-12T00:36:11.332Z,-0.26
2019-02-12T00:38:41.643Z,-0.16
2019-02-12T00:41:12.009Z,-0.14
2019-02-12T00:43:42.243Z,-0.14
2019-02-12T00:46:12.496Z,-0.16
2019-02-12T00:48:42.629Z,-0.20
2019-02-12T00:51:17.908Z,-0.22
2019-02-12T00:53:44.881Z,-0.39
2019-02-12T00:56:15.214Z,-0.46
2019-02-12T00:58:45.578Z,-0.51
2019-02-12T01:01:15.843Z,-0.47
2019-02-12T01:03:46.054Z,-0.44
2019-02-12T01:06:16.221Z,-0.45
2019-02-12T01:08:46.420Z,-0.40
2019-02-12T01:11:17.106Z,-0.51
2019-02-12T01:13:47.378Z,-0.63
2019-02-12T01:16:17.826Z,-0.72
2019-02-12T01:18:48.131Z,-0.72
2019-02-12T01:21:25.896Z,-0.77
2019-02-12T01:23:50.407Z,-0.78
2019-02-12T01:26:20.578Z,-0.68
2019-02-12T01:28:50.694Z,-0.56
2019-02-12T01:31:20.942Z,-0.37
2019-02-12T01:33:51.322Z,-0.26
2019-02-12T01:36:21.498Z,-0.20
2019-02-12T01:38:51.628Z,-0.20
2019-02-12T01:41:21.962Z,-0.19
2019-02-12T01:43:52.194Z,-0.12
2019-02-12T01:46:22.367Z,-0.04
2019-02-12T01:48:52.997Z,0.06
2019-02-12T01:51:23.519Z,0.13
2019-02-12T01:53:53.796Z,0.20
2019-02-12T01:56:23.918Z,0.24
2019-02-12T01:58:54.128Z,0.25
2019-02-12T02:01:24.406Z,0.24
2019-02-12T02:03:54.689Z,0.24
2019-02-12T02:06:24.862Z,0.29
2019-02-12T02:08:55.035Z,0.35
2019-02-12T02:11:25.269Z,0.28
2019-02-12T02:13:55.478Z,0.20
2019-02-12T02:16:25.741Z,-0.07
2019-02-12T02:18:55.854Z,-0.16
2019-02-12T02:21:26.087Z,-0.17
2019-02-12T02:23:56.236Z,-0.20
2019-02-12T02:26:26.482Z,-0.21
2019-02-12T02:28:57.064Z,-0.23
2019-02-12T02:31:27.595Z,-0.17
2019-02-12T02:33:57.876Z,-0.29
2019-02-12T02:36:28.130Z,-0.28
2019-02-12T02:38:58.341Z,-0.22
2019-02-12T02:41:28.523Z,-0.20
2019-02-12T02:43:58.684Z,-0.19
2019-02-12T02:46:28.871Z,-0.16
2019-02-12T02:48:59.116Z,-0.12
2019-02-12T02:51:29.296Z,-0.03
2019-02-12T02:53:59.428Z,0.04
2019-02-12T02:56:29.704Z,0.07
2019-02-12T02:59:00.052Z,0.09
2019-02-12T03:01:30.590Z,0.16
2019-02-12T03:04:00.979Z,0.21
2019-02-12T03:06:32.271Z,0.28
2019-02-12T03:09:04.109Z,0.36
2019-02-12T03:11:35.882Z,0.43
2019-02-12T03:14:06.040Z,0.39
2019-02-12T03:16:36.667Z,0.43
2019-02-12T03:19:07.054Z,0.46
2019-02-12T03:21:37.250Z,0.49
2019-02-12T03:24:07.799Z,0.51
2019-02-12T03:26:37.988Z,0.54
2019-02-12T03:29:08.182Z,0.56
2019-02-12T03:31:38.326Z,0.58
2019-02-12T03:34:08.482Z,0.57
2019-02-12T03:36:38.712Z,0.62
2019-02-12T03:39:09.032Z,0.62
2019-02-12T03:41:39.153Z,0.64
2019-02-12T03:44:09.304Z,0.68
2019-02-12T03:46:39.420Z,0.67
2019-02-12T03:49:09.670Z,0.67
2019-02-12T03:51:39.815Z,0.67
2019-02-12T03:54:09.967Z,0.72
2019-02-12T03:56:40.128Z,0.70
2019-02-12T03:59:10.317Z,0.71
2019-02-12T04:01:40.735Z,0.66
2019-02-12T04:04:10.893Z,0.71
2019-02-12T04:06:41.567Z,0.71
2019-02-12T04:09:11.944Z,0.76
2019-02-12T04:11:42.271Z,0.77
2019-02-12T04:14:12.527Z,0.78
2019-02-12T04:16:42.636Z,0.72
2019-02-12T04:19:12.915Z,0.69
2019-02-12T04:21:43.327Z,0.70
2019-02-12T04:24:13.594Z,0.71
2019-02-12T04:26:44.554Z,0.75
2019-02-12T04:29:14.964Z,0.80
2019-02-12T04:31:45.448Z,0.82
2019-02-12T04:34:33.415Z,0.80
2019-02-12T04:37:03.676Z,0.83
2019-02-12T04:39:34.632Z,0.88
2019-02-12T04:42:04.944Z,0.90
2019-02-12T04:44:35.197Z,0.91
2019-02-12T04:47:05.413Z,0.90
2019-02-12T04:49:35.602Z,0.87
2019-02-12T04:52:05.927Z,0.83
2019-02-12T04:54:36.168Z,0.83
2019-02-12T04:57:06.492Z,0.83
2019-02-12T04:59:36.752Z,0.82
2019-02-12T05:02:07.021Z,0.82
2019-02-12T05:04:37.310Z,0.86
2019-02-12T05:07:07.925Z,0.87
2019-02-12T05:09:40.024Z,0.87
2019-02-12T05:12:10.300Z,0.91
2019-02-12T05:14:40.593Z,0.88
2019-02-12T05:17:10.759Z,0.86
2019-02-12T05:19:41.132Z,0.83
2019-02-12T05:22:11.284Z,0.84
2019-02-12T05:24:41.509Z,0.84
2019-02-12T05:27:11.649Z,0.85
2019-02-12T05:29:41.933Z,0.85
2019-02-12T05:32:12.234Z,0.86
2019-02-12T05:34:42.514Z,0.87
2019-02-12T05:37:12.764Z,0.88
2019-02-12T05:40:01.044Z,0.90
2019-02-12T05:42:31.275Z,0.88
2019-02-12T05:45:01.724Z,0.85
2019-02-12T05:47:31.879Z,0.79
2019-02-12T05:50:02.129Z,0.74
2019-02-12T05:52:32.288Z,0.70
2019-02-12T05:55:02.583Z,0.70
2019-02-12T05:57:32.874Z,0.68
2019-02-12T06:00:03.443Z,0.64
2019-02-12T06:02:33.748Z,0.73
2019-02-12T06:05:04.415Z,0.74
2019-02-12T06:07:34.668Z,0.73
2019-02-12T06:10:05.115Z,0.72
2019-02-12T06:12:35.628Z,0.67
2019-02-12T06:15:06.688Z,0.72
2019-02-12T06:17:37.002Z,0.75
2019-02-12T06:20:07.320Z,0.74
2019-02-12T06:22:37.636Z,0.71
2019-02-12T06:25:08.511Z,0.66
2019-02-12T06:27:38.963Z,0.59
2019-02-12T06:30:09.912Z,0.61
2019-02-12T06:32:40.216Z,0.63
2019-02-12T06:35:10.584Z,0.62
2019-02-12T06:37:40.705Z,0.65
2019-02-12T06:40:10.963Z,0.70
2019-02-12T06:42:42.068Z,0.69
2019-02-12T06:45:12.439Z,0.69
2019-02-12T06:47:43.585Z,0.73
2019-02-12T06:50:13.735Z,0.80
2019-02-12T06:52:44.117Z,0.82
2019-02-12T06:55:14.484Z,0.78
2019-02-12T06:57:44.935Z,0.69
2019-02-12T07:00:15.455Z,0.69
2019-02-12T07:03:20.896Z,0.73
2019-02-12T07:05:58.505Z,0.75
2019-02-12T07:08:51.864Z,0.83
2019-02-12T07:12:07.054Z,0.89
2019-02-12T07:15:02.682Z,0.99
2019-02-12T07:18:23.614Z,1.05
2019-02-12T07:21:34.430Z,1.05
2019-02-12T07:24:36.469Z,1.14
2019-02-12T07:27:48.298Z,1.20
2019-02-12T07:30:39.925Z,1.23
2019-02-12T07:33:41.648Z,1.31
2019-02-12T07:36:44.730Z,1.37
2019-02-12T07:39:56.734Z,1.40
2019-02-12T07:43:39.056Z,1.48
2019-02-12T07:46:52.252Z,1.57
2019-02-12T07:50:19.202Z,1.61
2019-02-12T07:53:00.324Z,1.69
2019-02-12T07:56:17.294Z,1.83
2019-02-12T07:59:50.100Z,1.97
2019-02-12T08:02:47.154Z,2.09
2019-02-12T08:06:04.526Z,2.26
2019-02-12T08:09:17.316Z,2.40
2019-02-12T08:12:04.139Z,2.56
2019-02-12T08:15:04.990Z,2.71
2019-02-12T08:17:52.836Z,2.86
2019-02-12T08:21:22.826Z,2.96
2019-02-12T08:24:23.209Z,3.06
2019-02-12T08:27:26.482Z,3.23
2019-02-12T08:30:15.363Z,3.57
2019-02-12T08:33:36.137Z,4.25
2019-02-12T08:36:41.522Z,5.01
2019-02-12T08:39:23.535Z,6.82
2019-02-12T08:42:33.755Z,8.44
2019-02-12T08:46:03.403Z,9.34
2019-02-12T08:48:54.243Z,10.42
2019-02-12T08:52:12.371Z,11.46
2019-02-12T08:55:20.055Z,11.04
2019-02-12T08:58:37.291Z,10.76
2019-02-12T09:01:20.402Z,9.06
2019-02-12T09:04:40.507Z,8.78
2019-02-12T09:07:33.815Z,7.77
2019-02-12T09:10:51.865Z,7.43
2019-02-12T09:14:16.496Z,7.47
2019-02-12T09:17:23.328Z,7.39
2019-02-12T09:20:07.961Z,6.41
2019-02-12T09:23:14.251Z,5.70
2019-02-12T09:26:05.110Z,5.98
2019-02-12T09:29:00.320Z,6.14
2019-02-12T09:32:26.983Z,6.89
2019-02-12T09:35:50.841Z,6.61
2019-02-12T09:38:44.612Z,6.36
2019-02-12T09:41:22.454Z,6.79
2019-02-12T09:45:01.850Z,6.61
2019-02-12T09:48:02.685Z,6.33
2019-02-12T09:51:13.315Z,6.63
2019-02-12T09:54:22.747Z,7.82
2019-02-12T09:57:37.218Z,9.55
2019-02-12T10:00:35.286Z,10.65
2019-02-12T10:03:24.279Z,9.75
2019-02-12T10:06:34.374Z,10.82
2019-02-12T10:09:58.056Z,10.48
2019-02-12T10:13:17.913Z,8.78
2019-02-12T10:16:16.605Z,7.73
2019-02-12T10:19:23.813Z,7.54
2019-02-12T10:22:48.395Z,7.20
2019-02-12T10:25:26.285Z,7.47
2019-02-12T10:28:22.015Z,6.92
2019-02-12T10:31:13.294Z,6.55
2019-02-12T10:33:43.668Z,6.97
2019-02-12T10:36:14.200Z,6.63
2019-02-12T10:38:44.659Z,7.15
2019-02-12T10:41:14.821Z,6.97
2019-02-12T10:43:44.959Z,6.70
2019-02-12T10:46:15.075Z,6.44
2019-02-12T10:48:45.344Z,6.81
2019-02-12T10:51:15.636Z,7.31
2019-02-12T10:53:45.805Z,7.80
2019-02-12T10:56:16.311Z,7.62
2019-02-12T10:58:47.023Z,7.87
2019-02-12T11:01:17.218Z,8.00
2019-02-12T11:03:47.550Z,8.08
2019-02-12T11:06:18.833Z,7.98
2019-02-12T11:08:49.290Z,7.73
2019-02-12T11:11:20.034Z,7.86
2019-02-12T11:13:50.374Z,7.72
2019-02-12T11:16:20.614Z,7.55
2019-02-12T11:18:51.220Z,7.35
2019-02-12T11:21:21.578Z,7.40
2019-02-12T11:23:51.966Z,7.42
2019-02-12T11:26:23.153Z,7.19
2019-02-12T11:28:53.353Z,6.60
2019-02-12T11:31:23.647Z,6.77
2019-02-12T11:33:53.934Z,6.91
2019-02-12T11:36:24.211Z,7.07
2019-02-12T11:38:54.349Z,7.21
2019-02-12T11:41:24.967Z,7.10
2019-02-12T11:43:55.310Z,7.28
2019-02-12T11:46:25.508Z,7.69
2019-02-12T11:48:55.837Z,7.13
2019-02-12T11:51:26.665Z,6.91
2019-02-12T11:53:57.033Z,6.71
2019-02-12T11:56:27.392Z,7.05
2019-02-12T11:58:57.588Z,7.03
2019-02-12T12:01:30.491Z,6.96
2019-02-12T12:04:00.813Z,7.20
2019-02-12T12:06:31.283Z,7.07
2019-02-12T12:09:01.460Z,6.94
2019-02-12T12:11:33.295Z,7.19
2019-02-12T12:14:03.785Z,7.45
2019-02-12T12:16:33.979Z,7.54
2019-02-12T12:19:04.185Z,7.49
2019-02-12T12:21:34.497Z,7.53
2019-02-12T12:24:04.739Z,8.21
2019-02-12T12:26:35.469Z,8.54
2019-02-12T12:29:05.913Z,8.67
2019-02-12T12:31:36.259Z,8.75
2019-02-12T12:34:06.502Z,8.77
2019-02-12T12:36:36.978Z,8.61
2019-02-12T12:39:07.486Z,8.24
2019-02-12T12:41:37.757Z,8.04
2019-02-12T12:44:07.912Z,8.02
2019-02-12T12:46:38.234Z,7.67
2019-02-12T12:49:08.594Z,7.69
2019-02-12T12:51:38.758Z,7.50
2019-02-12T12:54:09.010Z,7.33
2019-02-12T12:56:39.333Z,7.03
2019-02-12T12:59:09.870Z,7.22
2019-02-12T13:01:40.225Z,7.40
2019-02-12T13:04:10.647Z,7.66
2019-02-12T13:06:40.897Z,7.80
2019-02-12T13:09:11.110Z,8.02
2019-02-12T13:11:41.300Z,8.20
2019-02-12T13:14:12.295Z,8.43
2019-02-12T13:16:42.578Z,8.60
2019-02-12T13:19:12.735Z,9.09
2019-02-12T13:21:42.911Z,8.94
2019-02-12T13:24:13.243Z,8.86
2019-02-12T13:26:43.572Z,8.90
2019-02-12T13:29:13.786Z,8.15
2019-02-12T13:31:44.581Z,7.97
2019-02-12T13:34:14.991Z,8.06
2019-02-12T13:36:45.209Z,8.11
2019-02-12T13:39:15.545Z,8.27
2019-02-12T13:41:46.209Z,7.68
2019-02-12T13:44:16.798Z,7.96
2019-02-12T13:46:47.141Z,7.99
2019-02-12T13:49:17.628Z,8.09
2019-02-12T13:51:48.088Z,8.40
2019-02-12T13:54:18.384Z,9.13
2019-02-12T13:56:48.782Z,9.48
2019-02-12T13:59:19.341Z,9.62
2019-02-12T14:01:49.795Z,9.63
2019-02-12T14:04:20.238Z,9.56
2019-02-12T14:06:50.451Z,9.79
2019-02-12T14:09:20.641Z,10.18
2019-02-12T14:11:50.806Z,10.95
2019-02-12T14:14:22.166Z,10.70
2019-02-12T14:16:52.619Z,10.72
2019-02-12T14:19:23.059Z,9.92
2019-02-12T14:21:53.305Z,9.14
2019-02-12T14:24:23.492Z,8.91
2019-02-12T14:26:53.764Z,9.32
2019-02-12T14:29:24.135Z,9.50
2019-02-12T14:31:54.461Z,9.92
2019-02-12T14:34:25.071Z,10.27
2019-02-12T14:36:55.632Z,10.18
2019-02-12T14:39:25.937Z,10.16
2019-02-12T14:41:56.134Z,9.53
2019-02-12T14:44:26.305Z,9.45
2019-02-12T14:46:56.496Z,9.67
2019-02-12T14:49:26.671Z,9.24
2019-02-12T14:51:57.153Z,9.02
2019-02-12T14:54:27.316Z,8.84
2019-02-12T14:56:57.566Z,8.34
2019-02-12T14:59:28.136Z,7.90
2019-02-12T15:01:59.533Z,8.01
2019-02-12T15:04:29.885Z,7.70
2019-02-12T15:07:00.258Z,7.90
2019-02-12T15:09:31.011Z,7.86
2019-02-12T15:12:01.522Z,7.97
2019-02-12T15:14:31.694Z,8.04
2019-02-12T15:17:02.039Z,8.21
2019-02-12T15:19:32.712Z,8.05
2019-02-12T15:22:03.116Z,7.68
2019-02-12T15:24:33.532Z,7.85
2019-02-12T15:27:03.835Z,7.77
2019-02-12T15:29:34.537Z,7.66
2019-02-12T15:32:05.083Z,7.34
2019-02-12T15:34:36.425Z,7.02
2019-02-12T15:37:07.095Z,6.49
2019-02-12T15:39:37.379Z,6.49
2019-02-12T15:42:07.617Z,6.53
2019-02-12T15:44:37.914Z,6.90
2019-02-12T15:47:08.265Z,6.69
2019-02-12T15:49:38.374Z,6.79
2019-02-12T15:52:08.706Z,6.66
2019-02-12T15:54:39.292Z,6.61
2019-02-12T15:57:09.688Z,6.50
2019-02-12T15:59:40.065Z,6.49
2019-02-12T16:02:11.654Z,6.16
2019-02-12T16:04:43.563Z,5.99
2019-02-12T16:07:14.120Z,6.18
2019-02-12T16:09:44.541Z,5.97
2019-02-12T16:12:14.874Z,6.02
2019-02-12T16:14:45.284Z,5.74
2019-02-12T16:17:16.528Z,5.75
2019-02-12T16:19:49.044Z,5.65
2019-02-12T16:22:19.532Z,5.54
2019-02-12T16:24:49.816Z,5.31
2019-02-12T16:27:20.048Z,5.42
2019-02-12T16:29:50.347Z,5.44
2019-02-12T16:32:20.641Z,5.26
2019-02-12T16:34:50.800Z,5.24
2019-02-12T16:37:21.071Z,5.27
2019-02-12T16:39:51.413Z,5.30
2019-02-12T16:42:22.026Z,5.27
2019-02-12T16:44:52.299Z,5.22
2019-02-12T16:47:22.735Z,5.16
2019-02-12T16:49:53.050Z,5.07
2019-02-12T16:52:23.670Z,5.04
2019-02-12T16:54:53.877Z,5.03
2019-02-12T16:57:24.233Z,4.96
2019-02-12T16:59:54.521Z,4.89
2019-02-12T17:02:24.874Z,4.84
2019-02-12T17:04:55.102Z,4.75
2019-02-12T17:07:25.717Z,4.67
2019-02-12T17:09:56.316Z,4.61
2019-02-12T17:12:26.583Z,4.57
2019-02-12T17:14:57.012Z,4.53
2019-02-12T17:17:27.585Z,4.48
2019-02-12T17:19:58.206Z,4.45
2019-02-12T17:22:28.539Z,4.40
2019-02-12T17:24:59.386Z,4.37
2019-02-12T17:27:29.854Z,4.37
2019-02-12T17:30:00.784Z,4.36
2019-02-12T17:32:31.087Z,4.31
2019-02-12T17:35:01.922Z,4.25
2019-02-12T17:37:32.387Z,4.18
2019-02-12T17:40:02.692Z,4.17
2019-02-12T17:42:32.997Z,4.11
2019-02-12T17:45:03.548Z,4.00
2019-02-12T17:47:34.050Z,3.82
2019-02-12T17:50:04.859Z,3.59
2019-02-12T17:52:35.393Z,3.36
2019-02-12T17:55:07.590Z,3.24
2019-02-12T17:57:37.939Z,3.19
2019-02-12T18:00:15.092Z,3.18
2019-02-12T18:02:45.678Z,3.16
2019-02-12T18:05:16.306Z,3.01
2019-02-12T18:07:46.507Z,2.93
2019-02-12T18:10:16.850Z,2.83
2019-02-12T18:12:49.545Z,2.76
2019-02-12T18:15:20.103Z,2.69
2019-02-12T18:17:50.445Z,2.57
2019-02-12T18:20:26.576Z,2.49
2019-02-12T18:22:53.490Z,2.42
2019-02-12T18:25:23.681Z,2.29
2019-02-12T18:27:53.910Z,2.22
2019-02-12T18:30:24.452Z,2.16
2019-02-12T18:32:55.269Z,2.09
2019-02-12T18:35:26.004Z,2.01
2019-02-12T18:37:56.685Z,1.94
2019-02-12T18:40:27.140Z,1.83
2019-02-12T18:42:57.825Z,1.72
2019-02-12T18:45:28.488Z,1.67
2019-02-12T18:48:00.172Z,1.59
2019-02-12T18:50:30.795Z,1.54
2019-02-12T18:53:01.572Z,1.55
2019-02-12T18:55:32.111Z,1.44
2019-02-12T18:58:02.826Z,1.35
2019-02-12T19:00:33.798Z,1.30
2019-02-12T19:03:04.531Z,1.23
2019-02-12T19:05:35.052Z,1.12
2019-02-12T19:08:05.961Z,1.07
2019-02-12T19:10:36.476Z,1.03
2019-02-12T19:13:07.155Z,0.98
2019-02-12T19:15:37.586Z,0.87
2019-02-12T19:18:10.640Z,0.82
2019-02-12T19:20:40.936Z,0.77
2019-02-12T19:23:11.863Z,0.75
2019-02-12T19:25:42.680Z,0.74
2019-02-12T19:28:13.799Z,0.66
2019-02-12T19:30:44.412Z,0.61
2019-02-12T19:33:14.681Z,0.59
2019-02-12T19:35:45.267Z,0.54
2019-02-12T19:38:15.917Z,0.48
2019-02-12T19:40:46.412Z,0.37
2019-02-12T19:43:17.122Z,0.28
2019-02-12T19:45:47.555Z,0.23
2019-02-12T19:48:17.944Z,0.20
2019-02-12T19:50:48.520Z,0.15
2019-02-12T19:53:19.211Z,0.14
2019-02-12T19:55:49.604Z,0.11
2019-02-12T19:58:20.408Z,0.06
2019-02-12T20:00:50.831Z,0.01
2019-02-12T20:03:21.572Z,0.03
2019-02-12T20:05:52.030Z,-0.03
2019-02-12T20:08:22.506Z,-0.08
2019-02-12T20:10:53.271Z,-0.11
2019-02-12T20:13:23.856Z,-0.14
2019-02-12T20:15:55.347Z,-0.19
2019-02-12T20:18:25.929Z,-0.15
2019-02-12T20:20:56.276Z,-0.07
2019-02-12T20:23:26.802Z,-0.16
2019-02-12T20:25:57.208Z,-0.46
2019-02-12T20:28:27.718Z,-0.26
2019-02-12T20:30:58.212Z,-0.09
2019-02-12T20:33:29.111Z,-0.11
2019-02-12T20:35:59.976Z,-0.01
2019-02-12T20:38:30.466Z,0.04
2019-02-12T20:41:02.422Z,0.12
2019-02-12T20:43:32.992Z,0.11
2019-02-12T20:46:03.700Z,0.04
2019-02-12T20:48:34.366Z,-0.07
2019-02-12T20:51:05.190Z,-0.11
2019-02-12T20:53:35.738Z,-0.16
2019-02-12T20:56:06.334Z,-0.16
2019-02-12T20:58:36.749Z,-0.22
2019-02-12T21:01:08.310Z,-0.29
2019-02-12T21:03:39.036Z,-0.32
2019-02-12T21:06:09.437Z,-0.34
2019-02-12T21:08:40.224Z,-0.35
2019-02-12T21:11:11.566Z,-0.40
2019-02-12T21:13:42.208Z,-0.51
2019-02-12T21:16:12.845Z,-0.58
2019-02-12T21:18:43.399Z,-0.68
2019-02-12T21:21:13.761Z,-0.75
2019-02-12T21:23:44.708Z,-0.70
2019-02-12T21:26:15.042Z,-0.73
2019-02-12T21:28:45.359Z,-0.74
2019-02-12T21:31:17.523Z,-0.73
2019-02-12T21:33:48.478Z,-0.71
2019-02-12T21:36:18.800Z,-0.71
2019-02-12T21:38:49.148Z,-0.66
2019-02-12T21:41:20.059Z,-0.63
2019-02-12T21:43:50.484Z,-0.63
2019-02-12T21:46:21.020Z,-0.60
2019-02-12T21:48:51.401Z,-0.58
2019-02-12T21:51:21.731Z,-0.54
2019-02-12T21:53:52.262Z,-0.48
2019-02-12T21:56:22.574Z,-0.44
2019-02-12T21:58:53.219Z,-0.43
2019-02-12T22:01:23.670Z,-0.34
2019-02-12T22:03:53.964Z,-0.28
2019-02-12T22:06:24.214Z,-0.26
2019-02-12T22:08:54.420Z,-0.27
2019-02-12T22:11:25.226Z,-0.23
2019-02-12T22:13:55.424Z,-0.23
2019-02-12T22:16:25.934Z,-0.16
2019-02-12T22:18:56.617Z,-0.14
2019-02-12T22:21:27.134Z,-0.14
2019-02-12T22:23:57.578Z,-0.18
2019-02-12T22:26:28.308Z,-0.19
2019-02-12T22:28:58.554Z,-0.18
2019-02-12T22:31:28.754Z,-0.14
2019-02-12T22:33:59.088Z,-0.08
2019-02-12T22:36:29.327Z,-0.10
2019-02-12T22:38:59.516Z,-0.16
2019-02-12T22:41:29.742Z,-0.24
2019-02-12T22:44:00.101Z,-0.29
2019-02-12T22:46:30.614Z,-0.33
2019-02-12T22:49:01.090Z,-0.36
2019-02-12T22:51:31.322Z,-0.44
2019-02-12T22:54:01.521Z,-0.54
2019-02-12T22:56:31.714Z,-0.63
2019-02-12T22:59:02.147Z,-0.72
2019-02-12T23:01:39.662Z,-0.78
2019-02-12T23:04:09.957Z,-0.85
2019-02-12T23:06:40.415Z,-0.92
2019-02-12T23:09:17.858Z,-0.97
2019-02-12T23:11:48.456Z,-1.01
2019-02-12T23:14:18.784Z,-1.06
2019-02-12T23:16:49.183Z,-1.05
2019-02-12T23:19:19.316Z,-1.11
2019-02-12T23:21:49.445Z,-1.20
2019-02-12T23:24:19.715Z,-1.25
2019-02-12T23:26:49.920Z,-1.29
2019-02-12T23:29:20.037Z,-1.30
2019-02-12T23:31:50.308Z,-1.29
2019-02-12T23:34:20.408Z,-1.35
2019-02-12T23:36:50.698Z,-1.36
2019-02-12T23:39:20.905Z,-1.34
2019-02-12T23:41:51.393Z,-1.34
2019-02-12T23:44:21.785Z,-1.40
2019-02-12T23:46:52.294Z,-1.53
2019-02-12T23:49:22.741Z,-1.57
2019-02-12T23:51:52.868Z,-1.61
2019-02-12T23:54:23.051Z,-1.64
2019-02-12T23:56:53.272Z,-1.68
2019-02-12T23:59:23.449Z,-1.74
